createdAt,value
2023-02-07T00:01:25.711Z,103865.41
2023-02-07T00:03:52.899Z,103873.50
2023-02-07T00:06:24.665Z,103862.72
2023-02-07T00:08:52.858Z,103859.38
2023-02-07T00:11:21.121Z,103861.09
2023-02-07T00:13:50.217Z,103880.06
2023-02-07T00:16:17.124Z,103873.81
2023-02-07T00:18:44.171Z,103861.94
2023-02-07T00:21:14.258Z,103868.53
2023-02-07T00:23:41.712Z,103861.78
2023-02-07T00:26:09.262Z,103860.75
2023-02-07T00:28:37.033Z,103858.47
2023-02-07T00:31:06.813Z,103853.44
2023-02-07T00:33:35.452Z,103859.44
2023-02-07T00:36:05.402Z,103866.34
2023-02-07T00:38:32.136Z,103856.34
2023-02-07T00:40:59.070Z,103859.66
2023-02-07T00:43:29.848Z,103844.78
2023-02-07T00:46:01.352Z,103849.50
2023-02-07T00:48:28.935Z,103845.38
2023-02-07T00:50:56.216Z,103849.28
2023-02-07T00:53:23.543Z,103850.13
2023-02-07T00:55:50.250Z,103846.22
2023-02-07T00:58:17.092Z,103850.34
2023-02-07T01:00:43.749Z,103848.94
2023-02-07T01:03:10.356Z,103843.41
2023-02-07T01:05:37.408Z,103845.75
2023-02-07T01:08:04.582Z,103850.19
2023-02-07T01:10:31.870Z,103864.78
2023-02-07T01:12:58.906Z,103863.19
2023-02-07T01:15:26.369Z,103859.94
2023-02-07T01:17:52.974Z,103854.75
2023-02-07T01:20:19.729Z,103856.13
2023-02-07T01:22:46.359Z,103851.84
2023-02-07T01:25:13.006Z,103857.25
2023-02-07T01:27:39.579Z,103846.44
2023-02-07T01:30:06.472Z,103841.75
2023-02-07T01:32:33.907Z,103850.94
2023-02-07T01:35:00.762Z,103852.13
2023-02-07T01:37:27.556Z,103852.44
2023-02-07T01:39:55.034Z,103851.22
2023-02-07T01:42:24.587Z,103857.50
2023-02-07T01:44:51.076Z,103857.59
2023-02-07T01:47:23.692Z,103855.44
2023-02-07T01:49:55.576Z,103863.00
2023-02-07T01:52:26.868Z,103862.25
2023-02-07T01:54:58.133Z,103862.59
2023-02-07T01:57:25.569Z,103864.09
2023-02-07T01:59:54.297Z,103857.72
2023-02-07T02:02:23.112Z,103857.44
2023-02-07T02:04:54.933Z,103843.84
2023-02-07T02:07:23.005Z,103846.00
2023-02-07T02:09:49.601Z,103843.69
2023-02-07T02:12:55.652Z,103836.06
2023-02-07T02:15:37.901Z,103845.88
2023-02-07T02:18:38.521Z,103831.84
2023-02-07T02:21:22.036Z,103836.06
2023-02-07T02:24:29.461Z,103837.03
2023-02-07T02:27:09.834Z,103835.50
2023-02-07T02:29:54.472Z,103835.50
2023-02-07T02:32:36.001Z,103829.56
2023-02-07T02:35:19.745Z,103833.25
2023-02-07T02:38:03.221Z,103825.25
2023-02-07T02:40:51.782Z,103825.44
2023-02-07T02:43:31.820Z,103823.72
2023-02-07T02:46:03.440Z,103823.81
2023-02-07T02:48:31.190Z,103817.47
2023-02-07T02:50:58.457Z,103808.72
2023-02-07T02:53:25.033Z,103801.72
2023-02-07T02:56:18.703Z,103800.84
2023-02-07T02:59:13.294Z,103809.91
2023-02-07T03:02:02.693Z,103810.97
2023-02-07T03:04:39.094Z,103801.25
2023-02-07T03:07:23.488Z,103802.31
2023-02-07T03:10:28.488Z,103815.06
2023-02-07T03:12:58.200Z,103814.09
2023-02-07T03:15:50.705Z,103831.78
2023-02-07T03:18:43.234Z,103830.28
2023-02-07T03:21:24.605Z,103822.06
2023-02-07T03:23:53.845Z,103823.16
2023-02-07T03:26:23.312Z,103815.91
2023-02-07T03:28:51.441Z,103815.28
2023-02-07T03:31:21.777Z,103809.00
2023-02-07T03:33:51.251Z,103804.50
2023-02-07T03:36:28.621Z,103800.81
2023-02-07T03:38:55.263Z,103797.25
2023-02-07T03:41:33.845Z,103798.13
2023-02-07T03:44:06.955Z,103790.22
2023-02-07T03:46:37.888Z,103784.53
2023-02-07T03:49:05.446Z,103794.09
2023-02-07T03:51:32.001Z,103788.91
2023-02-07T03:53:58.608Z,103788.91
2023-02-07T03:56:25.355Z,103781.91
2023-02-07T03:58:52.188Z,103787.19
2023-02-07T04:01:18.873Z,103790.97
2023-02-07T04:03:45.599Z,103790.19
2023-02-07T04:06:12.301Z,103785.00
2023-02-07T04:08:38.903Z,103785.88
2023-02-07T04:11:05.612Z,103790.50
2023-02-07T04:13:32.224Z,103790.59
2023-02-07T04:15:59.302Z,103796.09
2023-02-07T04:18:25.973Z,103789.94
2023-02-07T04:21:00.975Z,103795.13
2023-02-07T04:23:27.615Z,103796.28
2023-02-07T04:25:54.183Z,103800.72
2023-02-07T04:28:20.813Z,103801.59
2023-02-07T04:30:47.469Z,103792.72
2023-02-07T04:33:14.085Z,103788.31
2023-02-07T04:35:40.712Z,103799.19
2023-02-07T04:38:07.299Z,103801.78
2023-02-07T04:40:34.015Z,103807.94
2023-02-07T04:43:00.590Z,103797.06
2023-02-07T04:45:27.195Z,103790.03
2023-02-07T04:47:53.776Z,103792.72
2023-02-07T04:50:20.388Z,103803.72
2023-02-07T04:52:47.033Z,103797.38
2023-02-07T04:55:13.621Z,103807.28
2023-02-07T04:57:40.197Z,103806.22
2023-02-07T05:00:07.042Z,103804.47
2023-02-07T05:02:33.686Z,103791.88
2023-02-07T05:05:00.261Z,103798.22
2023-02-07T05:07:26.852Z,103802.88
2023-02-07T05:09:53.708Z,103811.59
2023-02-07T05:12:20.377Z,103812.69
2023-02-07T05:14:46.974Z,103814.41
2023-02-07T05:17:13.596Z,103802.97
2023-02-07T05:19:40.179Z,103802.97
2023-02-07T05:22:06.766Z,103805.66
2023-02-07T05:24:33.522Z,103811.91
2023-02-07T05:27:00.141Z,103810.28
2023-02-07T05:29:26.848Z,103816.44
2023-02-07T05:32:12.693Z,103817.81
2023-02-07T05:34:39.277Z,103829.56
2023-02-07T05:37:05.858Z,103829.56
2023-02-07T05:39:32.436Z,103829.56
2023-02-07T05:41:59.109Z,103836.56
2023-02-07T05:44:25.706Z,103835.69
2023-02-07T05:46:52.743Z,103836.56
2023-02-07T05:49:19.417Z,103833.09
2023-02-07T05:51:46.026Z,103830.41
2023-02-07T05:54:12.651Z,103829.44
2023-02-07T05:56:39.255Z,103830.31
2023-02-07T05:59:05.950Z,103833.88
2023-02-07T06:01:32.570Z,103832.34
2023-02-07T06:03:59.172Z,103844.84
2023-02-07T06:06:25.779Z,103831.50
2023-02-07T06:08:52.384Z,103831.38
2023-02-07T06:11:18.950Z,103829.88
2023-02-07T06:13:45.580Z,103821.03
2023-02-07T06:16:12.568Z,103816.50
2023-02-07T06:18:39.279Z,103819.19
2023-02-07T06:21:06.084Z,103819.19
2023-02-07T06:23:32.671Z,103825.56
2023-02-07T06:25:59.273Z,103838.31
2023-02-07T06:28:25.873Z,103840.75
2023-02-07T06:30:53.371Z,103840.75
2023-02-07T06:33:20.149Z,103837.94
2023-02-07T06:35:47.485Z,103839.47
2023-02-07T06:38:18.173Z,103846.78
2023-02-07T06:40:45.285Z,103844.97
2023-02-07T06:43:12.396Z,103841.50
2023-02-07T06:45:39.255Z,103844.97
2023-02-07T06:48:06.606Z,103852.94
2023-02-07T06:50:33.671Z,103852.19
2023-02-07T06:53:02.126Z,103843.13
2023-02-07T06:55:29.808Z,103851.88
2023-02-07T06:57:56.571Z,103854.88
2023-02-07T07:00:24.809Z,103861.34
2023-02-07T07:02:51.466Z,103860.19
2023-02-07T07:05:18.073Z,103865.66
2023-02-07T07:07:44.874Z,103862.88
2023-02-07T07:10:11.517Z,103858.38
2023-02-07T07:12:38.111Z,103859.31
2023-02-07T07:15:05.238Z,103847.78
2023-02-07T07:17:31.857Z,103841.72
2023-02-07T07:19:59.784Z,103849.38
2023-02-07T07:22:26.628Z,103847.66
2023-02-07T07:24:53.195Z,103852.09
2023-02-07T07:27:19.754Z,103860.00
2023-02-07T07:29:47.184Z,103859.03
2023-02-07T07:35:00.558Z,103860.97
2023-02-07T07:37:27.142Z,103857.41
2023-02-07T07:39:53.794Z,103859.41
2023-02-07T07:42:20.388Z,103868.38
2023-02-07T07:44:47.002Z,103869.22
2023-02-07T07:47:13.854Z,103862.88
2023-02-07T07:49:40.718Z,103869.16
2023-02-07T07:52:07.540Z,103870.88
2023-02-07T07:54:34.122Z,103870.78
2023-02-07T07:57:00.745Z,103867.00
2023-02-07T07:59:27.493Z,103872.19
2023-02-07T08:01:54.068Z,103867.28
2023-02-07T08:04:20.664Z,103865.97
2023-02-07T08:06:47.251Z,103868.38
2023-02-07T08:09:13.968Z,103858.03
2023-02-07T08:11:40.560Z,103858.38
2023-02-07T08:14:07.170Z,103869.19
2023-02-07T08:16:33.878Z,103872.19
2023-02-07T08:19:00.468Z,103860.00
2023-02-07T08:21:27.068Z,103861.38
2023-02-07T08:23:57.183Z,103854.69
2023-02-07T08:26:23.766Z,103857.28
2023-02-07T08:28:52.394Z,103858.97
2023-02-07T08:31:19.305Z,103868.00
2023-02-07T08:33:45.998Z,103866.91
2023-02-07T08:36:13.008Z,103861.19
2023-02-07T08:38:39.625Z,103859.00
2023-02-07T08:41:06.298Z,103870.28
2023-02-07T08:43:32.909Z,103873.75
2023-02-07T08:46:00.770Z,103874.03
2023-02-07T08:48:27.641Z,103871.09
2023-02-07T08:50:54.519Z,103870.00
2023-02-07T08:53:21.489Z,103867.94
2023-02-07T08:55:48.458Z,103879.38
2023-02-07T08:58:15.069Z,103866.94
2023-02-07T09:00:42.113Z,103856.91
2023-02-07T09:03:09.003Z,103863.69
2023-02-07T09:05:35.682Z,103861.38
2023-02-07T09:08:03.043Z,103861.97
2023-02-07T09:10:29.836Z,103855.91
2023-02-07T09:12:56.429Z,103861.09
2023-02-07T09:15:23.016Z,103864.34
2023-02-07T09:17:49.726Z,103850.56
2023-02-07T09:20:16.346Z,103856.78
2023-02-07T09:23:12.481Z,103860.44
2023-02-07T09:25:40.791Z,103854.13
2023-02-07T09:28:08.706Z,103858.53
2023-02-07T09:30:35.696Z,103857.28
2023-02-07T09:33:02.495Z,103855.09
2023-02-07T09:35:29.093Z,103857.69
2023-02-07T09:37:56.117Z,103860.56
2023-02-07T09:40:23.505Z,103861.84
2023-02-07T09:43:08.986Z,103864.88
2023-02-07T09:45:40.679Z,103860.41
2023-02-07T09:48:17.842Z,103875.66
2023-02-07T09:50:57.232Z,103863.97
2023-02-07T09:53:28.841Z,103860.09
2023-02-07T09:56:01.196Z,103860.28
2023-02-07T09:58:41.018Z,103865.50
2023-02-07T10:01:24.218Z,103865.72
2023-02-07T10:04:01.947Z,103867.41
2023-02-07T10:06:30.126Z,103871.97
2023-02-07T10:08:59.898Z,103863.59
2023-02-07T10:11:42.749Z,103859.63
2023-02-07T10:14:34.883Z,103861.06
2023-02-07T10:17:07.118Z,103854.72
2023-02-07T10:19:36.695Z,103872.25
2023-02-07T10:22:24.448Z,103866.91
2023-02-07T10:25:07.049Z,103872.44
2023-02-07T10:27:48.038Z,103876.09
2023-02-07T10:30:23.654Z,103881.28
2023-02-07T10:32:52.117Z,103879.31
2023-02-07T10:35:28.448Z,103876.47
2023-02-07T10:37:59.519Z,103878.28
2023-02-07T10:40:34.964Z,103883.69
2023-02-07T10:43:19.758Z,103887.25
2023-02-07T10:45:51.885Z,103883.38
2023-02-07T10:48:20.952Z,103884.56
2023-02-07T10:50:47.778Z,103882.97
2023-02-07T10:53:54.318Z,103870.16
2023-02-07T10:56:26.990Z,103870.09
2023-02-07T10:58:56.327Z,103857.44
2023-02-07T11:01:31.880Z,103867.38
2023-02-07T11:03:58.622Z,103869.72
2023-02-07T11:06:27.568Z,103866.75
2023-02-07T11:09:12.730Z,103876.06
2023-02-07T11:11:40.766Z,103864.75
2023-02-07T11:14:15.525Z,103867.53
2023-02-07T11:16:45.546Z,103866.78
2023-02-07T11:19:20.471Z,103859.44
2023-02-07T11:21:49.221Z,103874.97
2023-02-07T11:24:19.676Z,103862.00
2023-02-07T11:27:06.758Z,103862.94
2023-02-07T11:29:44.185Z,103857.19
2023-02-07T11:32:15.037Z,103869.28
2023-02-07T11:34:46.612Z,103863.75
2023-02-07T11:37:27.360Z,103862.31
2023-02-07T11:40:16.037Z,103850.75
2023-02-07T11:42:43.020Z,103861.16
2023-02-07T11:45:15.562Z,103850.94
2023-02-07T11:47:45.221Z,103841.41
2023-02-07T11:50:20.858Z,103836.75
2023-02-07T11:52:56.683Z,103840.44
2023-02-07T11:55:34.307Z,103827.47
2023-02-07T11:58:17.813Z,103829.38
2023-02-07T12:00:45.191Z,103824.78
2023-02-07T12:03:41.289Z,103827.09
2023-02-07T12:06:14.320Z,103815.84
2023-02-07T12:08:41.581Z,103822.97
2023-02-07T12:11:17.450Z,103830.88
2023-02-07T12:13:52.634Z,103821.50
2023-02-07T12:16:42.134Z,103832.00
2023-02-07T12:19:19.186Z,103838.69
2023-02-07T12:22:07.604Z,103838.47
2023-02-07T12:24:43.173Z,103840.88
2023-02-07T12:27:16.675Z,103834.63
2023-02-07T12:30:12.930Z,103828.78
2023-02-07T12:32:54.681Z,103816.22
2023-02-07T12:35:58.856Z,103814.19
2023-02-07T12:38:32.775Z,103812.75
2023-02-07T12:41:18.598Z,103802.63
2023-02-07T12:44:09.563Z,103800.91
2023-02-07T12:46:36.870Z,103804.88
2023-02-07T12:49:28.499Z,103796.97
2023-02-07T12:52:40.471Z,103790.16
2023-02-07T12:55:20.632Z,103788.66
2023-02-07T12:57:56.438Z,103776.28
2023-02-07T13:00:26.138Z,103779.72
2023-02-07T13:03:14.654Z,103778.06
2023-02-07T13:05:47.918Z,103773.66
2023-02-07T13:08:33.982Z,103765.47
2023-02-07T13:11:08.904Z,103765.53
2023-02-07T13:13:54.034Z,103758.72
2023-02-07T13:16:27.485Z,103762.59
2023-02-07T13:19:44.161Z,103758.28
2023-02-07T13:22:36.458Z,103755.31
2023-02-07T13:25:07.778Z,103751.75
2023-02-07T13:27:36.587Z,103754.19
2023-02-07T13:30:03.546Z,103756.13
2023-02-07T13:32:30.154Z,103748.38
2023-02-07T13:35:05.746Z,103750.72
2023-02-07T13:37:59.260Z,103753.72
2023-02-07T13:40:58.933Z,103770.84
2023-02-07T13:44:10.351Z,103752.47
2023-02-07T13:47:14.557Z,103759.81
2023-02-07T13:49:47.772Z,103752.28
2023-02-07T13:52:55.236Z,103748.97
2023-02-07T13:55:40.137Z,103749.22
2023-02-07T13:58:51.643Z,103743.00
2023-02-07T14:01:24.390Z,103741.13
2023-02-07T14:04:09.240Z,103737.50
2023-02-07T14:06:42.702Z,103735.97
2023-02-07T14:09:15.401Z,103740.94
2023-02-07T14:11:44.723Z,103737.63
2023-02-07T14:14:27.651Z,103734.69
2023-02-07T14:17:00.225Z,103735.00
2023-02-07T14:19:43.176Z,103731.06
2023-02-07T14:22:31.226Z,103736.19
2023-02-07T14:25:03.565Z,103724.91
2023-02-07T14:27:31.868Z,103732.00
2023-02-07T14:30:01.491Z,103732.56
2023-02-07T14:32:39.024Z,103721.84
2023-02-07T14:35:17.439Z,103720.06
2023-02-07T14:37:51.586Z,103721.56
2023-02-07T14:40:32.951Z,103715.19
2023-02-07T14:43:03.831Z,103725.63
2023-02-07T14:45:33.480Z,103723.91
2023-02-07T14:48:00.917Z,103734.81
2023-02-07T14:50:33.982Z,103721.91
2023-02-07T14:53:04.585Z,103734.34
2023-02-07T14:55:41.074Z,103731.00
2023-02-07T14:58:19.894Z,103731.97
2023-02-07T15:00:51.048Z,103726.31
2023-02-07T15:03:20.568Z,103733.06
2023-02-07T15:05:53.967Z,103727.31
2023-02-07T15:08:23.666Z,103719.22
2023-02-07T15:11:04.237Z,103713.81
2023-02-07T15:13:39.180Z,103717.00
2023-02-07T15:16:07.090Z,103715.19
2023-02-07T15:18:39.037Z,103713.31
2023-02-07T15:21:07.153Z,103711.72
2023-02-07T15:23:33.811Z,103715.63
2023-02-07T15:26:06.136Z,103718.31
2023-02-07T15:28:33.347Z,103724.47
2023-02-07T15:31:10.531Z,103722.94
2023-02-07T15:34:05.383Z,103729.28
2023-02-07T15:36:37.962Z,103735.03
2023-02-07T15:39:07.831Z,103735.66
2023-02-07T15:41:34.976Z,103735.25
2023-02-07T15:44:07.242Z,103736.97
2023-02-07T15:46:55.734Z,103740.00
2023-02-07T15:49:35.514Z,103740.88
2023-02-07T15:52:14.413Z,103730.50
2023-02-07T15:54:47.003Z,103737.50
2023-02-07T15:57:25.625Z,103745.81
2023-02-07T15:59:55.545Z,103739.69
2023-02-07T16:02:31.612Z,103740.75
2023-02-07T16:04:59.661Z,103731.81
2023-02-07T16:07:27.206Z,103737.19
2023-02-07T16:09:54.019Z,103736.53
2023-02-07T16:12:33.343Z,103738.47
2023-02-07T16:15:01.929Z,103745.06
2023-02-07T16:17:44.143Z,103736.22
2023-02-07T16:20:14.612Z,103733.63
2023-02-07T16:22:43.910Z,103739.97
2023-02-07T16:25:22.095Z,103746.88
2023-02-07T16:27:51.838Z,103741.28
2023-02-07T16:30:23.544Z,103740.41
2023-02-07T16:32:50.524Z,103736.09
2023-02-07T16:35:20.878Z,103735.34
2023-02-07T16:37:47.866Z,103733.69
2023-02-07T16:40:15.474Z,103737.59
2023-02-07T16:42:42.628Z,103744.28
2023-02-07T16:45:17.147Z,103742.53
2023-02-07T16:47:44.429Z,103737.25
2023-02-07T16:50:19.004Z,103732.84
2023-02-07T16:52:47.531Z,103734.88
2023-02-07T16:55:14.338Z,103729.16
2023-02-07T16:57:42.553Z,103743.63
2023-02-07T17:00:13.906Z,103735.88
2023-02-07T17:02:40.653Z,103740.63
2023-02-07T17:05:07.583Z,103738.81
2023-02-07T17:07:34.233Z,103743.00
2023-02-07T17:10:00.971Z,103740.66
2023-02-07T17:12:27.576Z,103744.00
2023-02-07T17:14:54.262Z,103755.41
2023-02-07T17:17:20.964Z,103755.13
2023-02-07T17:19:48.817Z,103763.97
2023-02-07T17:22:15.508Z,103760.19
2023-02-07T17:24:42.195Z,103770.81
2023-02-07T17:27:10.580Z,103772.72
2023-02-07T17:29:37.228Z,103767.44
2023-02-07T17:32:03.996Z,103770.03
2023-02-07T17:34:30.581Z,103763.56
2023-02-07T17:36:57.280Z,103771.78
2023-02-07T17:39:24.040Z,103778.69
2023-02-07T17:41:50.721Z,103771.31
2023-02-07T17:44:21.365Z,103773.44
2023-02-07T17:46:48.440Z,103759.75
2023-02-07T17:49:16.588Z,103763.94
2023-02-07T17:51:43.337Z,103763.72
2023-02-07T17:54:09.973Z,103774.28
2023-02-07T17:56:36.638Z,103779.69
2023-02-07T17:59:05.372Z,103779.38
2023-02-07T18:01:32.955Z,103765.03
2023-02-07T18:04:00.141Z,103776.34
2023-02-07T18:06:29.362Z,103777.09
2023-02-07T18:08:58.602Z,103781.63
2023-02-07T18:11:27.311Z,103778.19
2023-02-07T18:13:56.866Z,103785.31
2023-02-07T18:16:26.262Z,103789.31
2023-02-07T18:18:55.045Z,103785.81
2023-02-07T18:21:21.829Z,103791.31
2023-02-07T18:23:48.563Z,103783.13
2023-02-07T18:26:16.686Z,103783.97
2023-02-07T18:28:43.750Z,103781.50
2023-02-07T18:31:16.256Z,103789.06
2023-02-07T18:33:43.386Z,103786.25
2023-02-07T18:36:10.294Z,103785.59
2023-02-07T18:38:37.315Z,103787.53
2023-02-07T18:41:14.600Z,103788.59
2023-02-07T18:43:42.493Z,103800.47
2023-02-07T18:46:15.054Z,103805.63
2023-02-07T18:48:42.017Z,103797.97
2023-02-07T18:51:10.962Z,103796.25
2023-02-07T18:53:38.460Z,103804.44
2023-02-07T18:56:11.551Z,103802.69
2023-02-07T18:58:38.710Z,103799.91
2023-02-07T19:01:13.041Z,103802.78
2023-02-07T19:03:39.598Z,103801.28
2023-02-07T19:06:07.964Z,103804.94
2023-02-07T19:08:35.078Z,103808.50
2023-02-07T19:11:04.801Z,103806.69
2023-02-07T19:13:33.138Z,103808.19
2023-02-07T19:16:07.944Z,103809.16
2023-02-07T19:18:35.102Z,103808.63
2023-02-07T19:21:13.513Z,103813.91
2023-02-07T19:23:41.059Z,103812.81
2023-02-07T19:26:08.754Z,103809.38
2023-02-07T19:28:36.840Z,103811.63
2023-02-07T19:31:04.604Z,103817.59
2023-02-07T19:33:31.205Z,103807.91
2023-02-07T19:36:03.101Z,103810.28
2023-02-07T19:38:29.681Z,103816.75
2023-02-07T19:40:57.483Z,103817.50
2023-02-07T19:43:24.275Z,103815.88
2023-02-07T19:45:50.940Z,103807.22
2023-02-07T19:48:17.580Z,103815.78
2023-02-07T19:50:45.134Z,103821.94
2023-02-07T19:53:11.872Z,103823.66
2023-02-07T19:55:38.955Z,103820.63
2023-02-07T19:58:05.619Z,103820.84
2023-02-07T20:00:32.386Z,103824.63
2023-02-07T20:02:59.322Z,103819.72
2023-02-07T20:05:26.865Z,103828.59
2023-02-07T20:07:54.034Z,103823.31
2023-02-07T20:10:20.650Z,103815.41
2023-02-07T20:12:48.332Z,103818.00
2023-02-07T20:15:14.942Z,103826.41
2023-02-07T20:17:41.658Z,103824.25
2023-02-07T20:20:08.943Z,103822.13
2023-02-07T20:22:35.537Z,103824.19
2023-02-07T20:25:02.228Z,103833.84
2023-02-07T20:27:28.809Z,103831.47
2023-02-07T20:29:55.408Z,103833.31
2023-02-07T20:32:22.058Z,103838.53
2023-02-07T20:34:48.783Z,103836.13
2023-02-07T20:37:15.450Z,103835.91
2023-02-07T20:39:42.008Z,103837.84
2023-02-07T20:42:08.649Z,103835.47
2023-02-07T20:44:35.223Z,103834.59
2023-02-07T20:47:01.810Z,103837.59
2023-02-07T20:49:30.736Z,103837.19
2023-02-07T20:51:59.002Z,103834.19
2023-02-07T20:54:27.823Z,103839.50
2023-02-07T20:56:55.260Z,103848.34
2023-02-07T20:59:25.040Z,103841.13
2023-02-07T21:01:52.183Z,103840.16
2023-02-07T21:04:19.083Z,103848.44
2023-02-07T21:06:45.763Z,103844.78
2023-02-07T21:09:13.520Z,103846.81
2023-02-07T21:11:45.634Z,103841.41
2023-02-07T21:14:30.236Z,103833.44
2023-02-07T21:16:59.393Z,103830.72
2023-02-07T21:19:26.043Z,103836.53
2023-02-07T21:21:55.051Z,103828.47
2023-02-07T21:24:21.963Z,103835.00
2023-02-07T21:26:49.292Z,103833.84
2023-02-07T21:29:16.645Z,103839.78
2023-02-07T21:31:43.369Z,103835.69
2023-02-07T21:34:10.011Z,103836.34
2023-02-07T21:36:39.901Z,103834.59
2023-02-07T21:39:10.477Z,103826.53
2023-02-07T21:41:39.511Z,103827.59
2023-02-07T21:44:06.462Z,103830.28
2023-02-07T21:46:36.436Z,103824.69
2023-02-07T21:49:06.479Z,103832.00
2023-02-07T21:51:35.257Z,103834.72
2023-02-07T21:54:03.639Z,103831.06
2023-02-07T21:56:32.766Z,103826.31
2023-02-07T21:59:02.056Z,103833.84
2023-02-07T22:01:30.088Z,103833.75
2023-02-07T22:03:59.734Z,103834.59
2023-02-07T22:06:26.814Z,103839.13
2023-02-07T22:08:58.972Z,103833.53
2023-02-07T22:11:28.181Z,103830.94
2023-02-07T22:13:55.158Z,103826.41
2023-02-07T22:16:23.535Z,103833.31
2023-02-07T22:18:53.074Z,103830.72
2023-02-07T22:21:29.202Z,103825.34
2023-02-07T22:23:57.387Z,103825.34
2023-02-07T22:26:24.759Z,103825.56
2023-02-07T22:28:51.968Z,103826.19
2023-02-07T22:31:24.995Z,103826.41
2023-02-07T22:33:54.392Z,103832.66
2023-02-07T22:36:24.178Z,103833.53
2023-02-07T22:38:51.465Z,103831.81
2023-02-07T22:41:19.128Z,103831.81
2023-02-07T22:43:45.801Z,103824.91
2023-02-07T22:46:16.445Z,103828.03
2023-02-07T22:48:43.624Z,103832.00
2023-02-07T22:51:17.998Z,103827.59
2023-02-07T22:53:44.762Z,103830.47
2023-02-07T22:56:11.811Z,103834.03
2023-02-07T22:58:38.751Z,103831.25
2023-02-07T23:01:06.318Z,103833.28
2023-02-07T23:03:34.415Z,103828.94
2023-02-07T23:06:05.290Z,103832.50
2023-02-07T23:08:31.896Z,103826.16
2023-02-07T23:10:58.526Z,103830.56
2023-02-07T23:13:25.101Z,103825.19
2023-02-07T23:15:53.883Z,103827.78
2023-02-07T23:18:20.744Z,103829.06
2023-02-07T23:20:47.556Z,103828.94
2023-02-07T23:23:14.173Z,103829.81
2023-02-07T23:25:44.928Z,103835.00
2023-02-07T23:28:12.786Z,103828.94
2023-02-07T23:30:40.416Z,103838.66
2023-02-07T23:33:09.116Z,103827.88
2023-02-07T23:35:35.975Z,103832.41
2023-02-07T23:38:06.559Z,103834.13
2023-02-07T23:40:33.319Z,103828.75
2023-02-07T23:42:59.939Z,103834.13
2023-02-07T23:45:26.543Z,103832.31
2023-02-07T23:47:53.805Z,103831.44
2023-02-07T23:50:22.291Z,103828.63
2023-02-07T23:52:48.884Z,103834.81
2023-02-07T23:55:15.570Z,103835.84
2023-02-07T23:57:42.139Z,103833.97
